Flight Track Log - Related Links

Times and Time Zones

All times are in EST time to prevent confusion due to time zone crossing. See the SAS943 flight status page for this flight to view local times or setup timezone preferences in your user account.

Time Position Orientation Groundspeed Altitude Reporting Facility
EST Latitude Longitude Course Direction KTS MPH feet Rate Location/Type
Sun 09:49:44 AM 55.5770 12.5796 221° Southwest 144 166 1,000  Level FlightAware ADS-B
Sun 09:50:14 AM 55.5615 12.5552 222° Southwest 169 194 1,300 686 Climbing FlightAware ADS-B
Sun 09:50:19 AM 55.5577 12.5489 223° Southwest 168 193 1,400 632 Climbing FlightAware ADS-B
Sun 09:50:33 AM 55.5515 12.5320 237° Southwest 191 220 1,500 600 Climbing FlightAware ADS-B
Sun 09:50:49 AM 55.5482 12.5055 258° West 213 245 1,700 857 Climbing FlightAware ADS-B
Sun 09:50:54 AM 55.5487 12.4957 275° West 222 255 1,800 800 Climbing FlightAware ADS-B
Sun 09:51:04 AM 55.5526 12.4780 291° West 244 281 1,900 960 Climbing FlightAware ADS-B
Sun 09:51:19 AM 55.5645 12.4552 313° West 268 308 2,200 1,200 Climbing FlightAware ADS-B
Sun 09:51:34 AM 55.5788 12.4327 318° Northwest 282 325 2,500 1,733 Climbing FlightAware ADS-B
Sun 09:52:04 AM 55.6091 12.3849 318° Northwest 292 336 3,500 2,000 Climbing FlightAware ADS-B
Sun 09:52:19 AM 55.6238 12.3611 317° Northwest 296 341 4,000 2,200 Climbing FlightAware ADS-B
Sun 09:52:34 AM 55.6392 12.3360 317° Northwest 297 342 4,600 2,000 Climbing FlightAware ADS-B
Sun 09:52:49 AM 55.6555 12.3091 317° Northwest 314 361 5,000 2,000 Climbing FlightAware ADS-B
Sun 09:53:04 AM 55.6714 12.2826 317° Northwest 314 361 5,600 2,400 Climbing FlightAware ADS-B
Sun 09:53:19 AM 55.6863 12.2580 317° Northwest 316 364 6,200 2,400 Climbing FlightAware ADS-B
Sun 09:53:34 AM 55.7032 12.2299 317° Northwest 314 361 6,800 2,200 Climbing FlightAware ADS-B
Sun 09:53:49 AM 55.7195 12.2025 317° Northwest 318 366 7,300 2,000 Climbing FlightAware ADS-B
Sun 09:54:04 AM 55.7359 12.1753 317° Northwest 321 369 7,800 2,200 Climbing FlightAware ADS-B
Sun 09:54:19 AM 55.7523 12.1478 317° Northwest 323 372 8,400 2,400 Climbing FlightAware ADS-B
Sun 09:54:34 AM 55.7686 12.1184 315° West 320 368 9,000 2,400 Climbing FlightAware ADS-B
Sun 09:54:49 AM 55.7825 12.0874 309° West 323 372 9,600 2,000 Climbing FlightAware ADS-B
Sun 09:55:04 AM 55.7955 12.0557 306° West 327 376 10,000 1,733 Climbing FlightAware ADS-B
Sun 09:55:34 AM 55.8224 11.9898 306° West 336 387 10,900 1,920 Climbing FlightAware ADS-B
Sun 09:56:19 AM 55.8620 11.8903 305° West 340 391 12,400 1,920 Climbing FlightAware ADS-B
Sun 09:56:49 AM 55.8900 11.8188 305° West 346 398 13,300 1,840 Climbing FlightAware ADS-B
Sun 09:57:34 AM 55.9307 11.7144 305° West 344 396 14,700 1,831 Climbing FlightAware ADS-B
Sun 09:57:48 AM 55.9437 11.6811 305° West 346 398 15,100 1,909 Climbing FlightAware ADS-B
Sun 09:58:18 AM 55.9710 11.6112 305° West 352 405 16,100 1,800 Climbing FlightAware ADS-B
Sun 09:58:48 AM 56.0005 11.5356 305° West 357 411 16,900 1,810 Climbing FlightAware ADS-B
Sun 09:59:21 AM 56.0271 11.4671 305° West 360 414 18,000 1,754 Climbing FlightAware ADS-B
Sun 09:59:53 AM 56.0547 11.4010 307° West 370 426 18,800 1,524 Climbing FlightAware ADS-B
Sun 10:00:24 AM 56.1027 11.3205 317° Northwest 372 428 19,600 1,475 Climbing FlightAware ADS-B
Sun 10:00:54 AM 56.1331 11.2667 315° West 376 433 20,300 1,400 Climbing FlightAware ADS-B
Sun 10:01:54 AM 56.2116 11.1273 315° West 385 443 21,700 1,333 Climbing FlightAware ADS-B
Sun 10:02:24 AM 56.2510 11.0577 316° Northwest 390 449 22,300 1,300 Climbing FlightAware ADS-B
Sun 10:02:54 AM 56.2923 10.9847 316° Northwest 392 451 23,000 1,377 Climbing FlightAware ADS-B
Sun 10:03:25 AM 56.3312 10.9155 315° West 395 455 23,700 1,133 Climbing FlightAware ADS-B
Sun 10:04:24 AM 56.4086 10.7772 315° West 402 463 24,700 1,000 Climbing FlightAware ADS-B
Sun 10:05:25 AM 56.4897 10.6316 315° West 412 474 25,700 938 Climbing FlightAware ADS-B
Sun 10:07:55 AM 56.6952 10.2582 301° West 427 491 28,000 896 Climbing FlightAware ADS-B
Sun 10:09:06 AM 56.7935 10.0775 315° West 431 496 29,000 908 Climbing FlightAware ADS-B
Sun 10:11:33 AM 57.0007 9.6919 302° West 432 497 31,300 949 Climbing FlightAware ADS-B
Sun 10:12:03 AM 57.0419 9.6143 314° West 429 494 31,800 885 Climbing FlightAware ADS-B
Sun 10:12:34 AM 57.0848 9.5334 314° West 426 490 32,200 677 Climbing FlightAware ADS-B
Sun 10:13:05 AM 57.1177 9.4711 314° West 427 491 32,500 635 Climbing FlightAware ADS-B
Sun 10:14:18 AM 57.2270 9.2628 314° West 428 493 33,300 62 Climbing FlightAware ADS-B
Sun 10:37:07 AM 59.0604 5.4479 297° West 432 497 34,000 30 Climbing FlightAware UK
Sun 10:37:37 AM 59.1035 5.3617 314° West 432 497 34,000  Level FlightAware UK
Sun 10:38:37 AM 59.1822 5.1841 311° West 432 497 34,000  Level FlightAware UK
Sun 10:39:07 AM 59.2213 5.0951 311° West 434 499 34,000  Level FlightAware UK
Sun 10:39:37 AM 59.2596 5.0055 310° West 434 499 34,000  Level FlightAware UK
Sun 10:40:31 AM 59.3293 4.8439 310° West 434 499 34,000  Level FlightAware UK
Sun 10:41:31 AM 59.4062 4.6642 310° West 434 499 34,000  Level FlightAware UK
Sun 10:42:01 AM 59.4452 4.5741 310° West 434 499 34,000  Level FlightAware UK
Sun 10:42:37 AM 59.4914 4.4656 310° West 432 497 34,000  Level FlightAware UK
Sun 10:43:31 AM 59.5599 4.3031 310° West 430 495 34,000  Level FlightAware UK
Sun 10:44:01 AM 59.5982 4.2133 310° West 430 495 34,000  Level FlightAware UK
Sun 10:44:31 AM 59.6358 4.1229 309° West 430 495 34,000  Level FlightAware UK
Sun 10:45:01 AM 59.6731 4.0321 309° West 432 497 34,000  Level FlightAware UK
Sun 10:45:37 AM 59.7177 3.9232 309° West 434 499 34,000  Level FlightAware UK
Sun 10:46:07 AM 59.7553 3.8314 309° West 434 499 34,000  Level FlightAware UK
Sun 10:46:43 AM 59.8002 3.7211 309° West 436 502 34,000  Level FlightAware UK
Sun 10:47:19 AM 59.8460 3.6093 309° West 438 504 34,000  Level FlightAware UK
Sun 10:48:07 AM 59.9075 3.4608 310° West 438 504 34,000  Level FlightAware UK
Sun 10:48:37 AM 59.9458 3.3659 309° West 440 506 34,000  Level FlightAware UK
Sun 10:49:25 AM 60.0081 3.2149 310° West 442 509 34,000  Level FlightAware UK
Sun 10:50:07 AM 60.0629 3.0821 310° West 442 509 34,000  Level FlightAware UK
Sun 10:50:42 AM 60.1075 2.9668 308° West 444 511 34,000  Level FlightAware UK
Sun 10:51:24 AM 60.1600 2.8321 308° West 444 511 34,000 11 Level FlightAware UK
Sun 10:53:00 AM 60.2387 2.4848 295° West  Level Estimated
Sun 11:00:00 AM 60.5721 0.9456 294° West  Level Estimated
Sun 11:01:00 AM 60.6183 0.7231 293° West  Level Estimated
Sun 11:02:00 AM 60.6641 0.5000 293° West  Level Estimated
Sun 11:03:00 AM 60.7095 0.2763 293° West  Level Estimated
Sun 11:04:00 AM 60.7546 0.0520 292° West  Level Estimated
Sun 11:05:00 AM 60.7992 -0.1730 292° West  Level Estimated
Sun 11:06:00 AM 60.8435 -0.3986 292° West  Level Estimated
Sun 11:07:00 AM 60.8875 -0.6249 292° West  Level Estimated
Sun 11:08:00 AM 60.9310 -0.8517 292° West  Level Estimated
Sun 11:09:00 AM 60.9742 -1.0792 291° West  Level Estimated
Sun 11:10:00 AM 61.0169 -1.3073 291° West  Level Estimated
Sun 11:11:00 AM 61.0593 -1.5359 291° West  Level Estimated
Sun 11:12:00 AM 61.1013 -1.7652 291° West  Level Estimated
Sun 11:13:00 AM 61.1429 -1.9952 291° West  Level Estimated
Sun 11:14:00 AM 61.1842 -2.2257 290° West  Level Estimated
Sun 11:15:00 AM 61.2250 -2.4568 290° West  Level Estimated
Sun 11:16:00 AM 61.2654 -2.6885 290° West  Level Estimated
Sun 11:17:00 AM 61.3055 -2.9208 290° West  Level Estimated
Sun 11:18:00 AM 61.3451 -3.1537 290° West  Level Estimated
Sun 11:19:00 AM 61.3843 -3.3872 289° West  Level Estimated
Sun 11:20:00 AM 61.4232 -3.6213 289° West  Level Estimated
Sun 11:21:00 AM 61.4616 -3.8559 289° West  Level Estimated
Sun 11:22:00 AM 61.4996 -4.0911 289° West  Level Estimated
Sun 11:23:00 AM 61.5373 -4.3270 289° West  Level Estimated
Sun 11:24:00 AM 61.5745 -4.5633 288° West  Level Estimated
Sun 11:25:00 AM 61.6113 -4.8003 288° West  Level Estimated
Sun 11:26:00 AM 61.6477 -5.0377 288° West  Level Estimated
Sun 11:27:00 AM 61.6837 -5.2758 288° West  Level Estimated
Sun 11:28:00 AM 61.7193 -5.5144 288° West  Level Estimated
Sun 11:29:00 AM 61.7544 -5.7535 287° West  Level Estimated
Sun 11:30:00 AM 61.7892 -5.9932 287° West  Level Estimated
Sun 11:31:00 AM 61.8235 -6.2335 287° West  Level Estimated
Sun 11:32:00 AM 61.8574 -6.4742 287° West  Level Estimated
Sun 11:33:00 AM 61.8909 -6.7155 287° West  Level Estimated
Sun 11:34:00 AM 61.9239 -6.9573 286° West  Level Estimated
Sun 11:35:00 AM 61.9566 -7.1997 286° West  Level Estimated
Sun 11:36:00 AM 61.9888 -7.4426 286° West  Level Estimated
Sun 11:37:00 AM 62.0205 -7.6859 286° West  Level Estimated
Sun 11:38:00 AM 62.0519 -7.9298 285° West  Level Estimated
Sun 11:39:00 AM 62.0828 -8.1742 285° West  Level Estimated
Sun 11:40:00 AM 62.1133 -8.4190 285° West  Level Estimated
Sun 11:41:00 AM 62.1433 -8.6644 285° West  Level Estimated
Sun 11:42:00 AM 62.1730 -8.9102 285° West  Level Estimated
Sun 11:43:00 AM 62.2021 -9.1566 284° West  Level Estimated
Sun 11:44:00 AM 62.2309 -9.4033 284° West  Level Estimated
Sun 11:45:00 AM 62.2592 -9.6506 284° West  Level Estimated
Sun 11:46:00 AM 62.2870 -9.8983 284° West  Level Estimated
Sun 11:47:00 AM 62.3145 -10.1465 283° West  Level Estimated
Sun 11:48:00 AM 62.3414 -10.3951 283° West  Level Estimated
Sun 11:49:00 AM 62.3680 -10.6442 283° West  Level Estimated
Sun 11:50:00 AM 62.3941 -10.8937 283° West  Level Estimated
Sun 11:51:00 AM 62.4197 -11.1437 283° West  Level Estimated
Sun 11:52:00 AM 62.4449 -11.3940 282° West  Level Estimated
Sun 11:53:00 AM 62.4696 -11.6448 282° West  Level Estimated
Sun 11:54:00 AM 62.4939 -11.8960 282° West  Level Estimated
Sun 11:55:00 AM 62.5178 -12.1476 282° West  Level Estimated
Sun 11:56:00 AM 62.5411 -12.3996 281° West  Level Estimated
Sun 11:57:00 AM 62.5641 -12.6520 281° West  Level Estimated
Sun 11:58:00 AM 62.5866 -12.9048 281° West  Level Estimated
Sun 11:59:00 AM 62.6086 -13.1579 281° West  Level Estimated
Sun 12:00:00 PM 62.6301 -13.4115 281° West  Level Estimated
Sun 12:01:00 PM 62.6512 -13.6653 280° West  Level Estimated
Sun 12:02:00 PM 62.6719 -13.9196 280° West  Level Estimated
Sun 12:03:00 PM 62.6921 -14.1742 280° West  Level Estimated
Sun 12:04:00 PM 62.7118 -14.4291 280° West  Level Estimated
Sun 12:05:00 PM 62.7311 -14.6844 279° West  Level Estimated
Sun 12:06:00 PM 62.7499 -14.9400 279° West  Level Estimated
Sun 12:07:00 PM 62.7682 -15.1960 279° West  Level Estimated
Sun 12:08:00 PM 62.7861 -15.4522 279° West  Level Estimated
Sun 12:09:00 PM 62.8035 -15.7088 279° West  Level Estimated
Sun 12:10:00 PM 62.8204 -15.9656 278° West  Level Estimated
Sun 12:11:00 PM 62.8369 -16.2228 278° West  Level Estimated
Sun 12:12:00 PM 62.8529 -16.4802 278° West  Level Estimated
Sun 12:13:00 PM 62.8684 -16.7379 278° West  Level Estimated
Sun 12:14:00 PM 62.8834 -16.9959 277° West  Level Estimated
Sun 12:15:00 PM 62.8980 -17.2541 277° West  Level Estimated
Sun 12:16:00 PM 62.9121 -17.5126 277° West  Level Estimated
Sun 12:17:00 PM 62.9258 -17.7713 277° West  Level Estimated
Sun 12:18:00 PM 62.9389 -18.0303 276° West  Level Estimated
Sun 12:19:00 PM 62.9516 -18.2895 276° West  Level Estimated
Sun 12:20:00 PM 62.9638 -18.5489 276° West  Level Estimated
Sun 12:21:00 PM 62.9756 -18.8085 276° West  Level Estimated
Sun 12:22:00 PM 62.9868 -19.0684 276° West  Level Estimated
Sun 12:23:00 PM 62.9976 -19.3284 275° West  Level Estimated
Sun 12:24:00 PM 63.0079 -19.5886 275° West  Level Estimated
Sun 12:25:00 PM 63.0177 -19.8490 275° West  Level Estimated
Sun 12:26:00 PM 63.0271 -20.1096 275° West  Level Estimated
Sun 12:27:00 PM 63.0359 -20.3703 274° West  Level Estimated
Sun 12:28:00 PM 63.0443 -20.6312 274° West  Level Estimated
Sun 12:29:00 PM 63.0522 -20.8923 274° West  Level Estimated
Sun 12:30:00 PM 63.0597 -21.1545 274° West  Level Estimated
Sun 12:31:00 PM 63.0667 -21.4168 273° West  Level Estimated
Sun 12:32:00 PM 63.0732 -21.6793 273° West  Level Estimated
Sun 12:33:00 PM 63.0792 -21.9419 273° West  Level Estimated
Sun 12:34:00 PM 63.0847 -22.2046 273° West  Level Estimated
Sun 12:35:00 PM 63.0897 -22.4673 273° West  Level Estimated
Sun 12:36:00 PM 63.0942 -22.7302 272° West  Level Estimated
Sun 12:37:00 PM 63.0983 -22.9932 272° West  Level Estimated
Sun 12:38:00 PM 63.1019 -23.2562 272° West  Level Estimated
Sun 12:39:00 PM 63.1049 -23.5192 272° West  Level Estimated
Sun 12:40:00 PM 63.1075 -23.7824 271° West  Level Estimated
Sun 12:41:00 PM 63.1096 -24.0455 271° West  Level Estimated
Sun 12:42:00 PM 63.1113 -24.3087 271° West  Level Estimated
Sun 12:43:00 PM 63.1124 -24.5719 271° West  Level Estimated
Sun 12:44:00 PM 63.1130 -24.8352 270° West  Level Estimated
Sun 12:45:00 PM 63.1132 -25.0984 270° West  Level Estimated
Sun 12:46:00 PM 63.1129 -25.3617 270° West  Level Estimated
Sun 12:47:00 PM 63.1120 -25.6249 270° West  Level Estimated
Sun 12:48:00 PM 63.1107 -25.8881 269° West  Level Estimated
Sun 12:49:00 PM 63.1089 -26.1513 269° West  Level Estimated
Sun 12:50:00 PM 63.1066 -26.4145 269° West  Level Estimated
Sun 12:51:00 PM 63.1039 -26.6776 269° West  Level Estimated
Sun 12:52:00 PM 63.1006 -26.9406 269° West  Level Estimated
Sun 12:53:00 PM 63.0969 -27.2036 268° West  Level Estimated
Sun 12:54:00 PM 63.0926 -27.4666 268° West  Level Estimated
Sun 12:55:00 PM 63.0879 -27.7294 268° West  Level Estimated
Sun 12:56:00 PM 63.0827 -27.9921 268° West  Level Estimated
Sun 12:57:00 PM 63.0770 -28.2548 267° West  Level Estimated
Sun 12:58:00 PM 63.0708 -28.5173 267° West  Level Estimated
Sun 12:59:00 PM 63.0642 -28.7797 267° West  Level Estimated
Sun 01:00:00 PM 63.0570 -29.0420 267° West  Level Estimated
Sun 01:01:00 PM 63.0494 -29.3042 266° West  Level Estimated
Sun 01:02:00 PM 63.0413 -29.5662 266° West  Level Estimated
Sun 01:03:00 PM 63.0327 -29.8281 266° West  Level Estimated
Sun 01:04:00 PM 63.0236 -30.0898 266° West  Level Estimated
Sun 01:05:00 PM 63.0140 -30.3514 266° West  Level Estimated
Sun 01:06:00 PM 63.0040 -30.6127 265° West  Level Estimated
Sun 01:07:00 PM 62.9934 -30.8739 265° West  Level Estimated
Sun 01:08:00 PM 62.9824 -31.1349 265° West  Level Estimated
Sun 01:09:00 PM 62.9709 -31.3957 265° West  Level Estimated
Sun 01:10:00 PM 62.9589 -31.6563 264° West  Level Estimated
Sun 01:11:00 PM 62.9465 -31.9166 264° West  Level Estimated
Sun 01:12:00 PM 62.9336 -32.1768 264° West  Level Estimated
Sun 01:13:00 PM 62.9202 -32.4367 264° West  Level Estimated
Sun 01:14:00 PM 62.9063 -32.6964 263° West  Level Estimated
Sun 01:15:00 PM 62.8919 -32.9558 263° West  Level Estimated
Sun 01:16:00 PM 62.8770 -33.2149 263° West  Level Estimated
Sun 01:17:00 PM 62.8617 -33.4738 263° West  Level Estimated
Sun 01:18:00 PM 62.8459 -33.7324 262° West  Level Estimated
Sun 01:19:00 PM 62.8297 -33.9908 262° West  Level Estimated
Sun 01:20:00 PM 62.8129 -34.2488 262° West  Level Estimated
Sun 01:21:00 PM 62.7957 -34.5065 262° West  Level Estimated
Sun 01:22:00 PM 62.7780 -34.7640 262° West  Level Estimated
Sun 01:23:00 PM 62.7599 -35.0211 261° West  Level Estimated
Sun 01:24:00 PM 62.7413 -35.2779 261° West  Level Estimated
Sun 01:25:00 PM 62.7222 -35.5344 261° West  Level Estimated
Sun 01:26:00 PM 62.7026 -35.7906 261° West  Level Estimated
Sun 01:27:00 PM 62.6826 -36.0464 260° West  Level Estimated
Sun 01:28:00 PM 62.6621 -36.3018 260° West  Level Estimated
Sun 01:29:00 PM 62.6412 -36.5569 260° West  Level Estimated
Sun 01:30:00 PM 62.6198 -36.8116 260° West  Level Estimated
Sun 01:31:00 PM 62.5979 -37.0660 260° West  Level Estimated
Sun 01:32:00 PM 62.5756 -37.3200 259° West  Level Estimated
Sun 01:33:00 PM 62.5528 -37.5736 259° West  Level Estimated
Sun 01:34:00 PM 62.5295 -37.8268 259° West  Level Estimated
Sun 01:35:00 PM 62.5058 -38.0796 259° West  Level Estimated
Sun 01:36:00 PM 62.4817 -38.3320 258° West  Level Estimated
Sun 01:37:00 PM 62.4570 -38.5840 258° West  Level Estimated
Sun 01:38:00 PM 62.4320 -38.8356 258° West  Level Estimated
Sun 01:39:00 PM 62.4064 -39.0867 258° West  Level Estimated
Sun 01:40:00 PM 62.3805 -39.3374 258° West  Level Estimated
Sun 01:41:00 PM 62.3540 -39.5877 257° West  Level Estimated
Sun 01:42:00 PM 62.3271 -39.8375 257° West  Level Estimated
Sun 01:43:00 PM 62.2998 -40.0869 257° West  Level Estimated
Sun 01:44:00 PM 62.2720 -40.3358 257° West  Level Estimated
Sun 01:45:00 PM 62.2438 -40.5843 256° West  Level Estimated
Sun 01:46:00 PM 62.2152 -40.8323 256° West  Level Estimated
Sun 01:47:00 PM 62.1861 -41.0798 256° West  Level Estimated
Sun 01:47:59 PM 62.8000 -42.9833 255° West 450 518 36,000  Level Gander Center
Sun 01:48:00 PM 62.1565 -41.3268 256° West  Level Estimated
Sun 01:48:59 PM 62.7667 -43.2333 254° West 450 518 36,000  Level Gander Center
Sun 01:49:00 PM 62.1266 -41.5734 256° West  Level Estimated
Sun 01:49:59 PM 62.7500 -43.5000 262° West 450 518 36,000  Level Gander Center
Sun 01:50:00 PM 62.0961 -41.8194 255° West  Level Estimated
Sun 01:50:59 PM 62.7333 -43.7833 263° West 450 518 36,000  Level Gander Center
Sun 01:51:00 PM 62.0653 -42.0650 255° West  Level Estimated
Sun 01:51:59 PM 62.7167 -44.0167 261° West 450 518 36,000  Level Gander Center
Sun 01:52:00 PM 62.0340 -42.3101 255° West  Level Estimated
Sun 01:52:59 PM 62.6833 -44.2833 255° West 450 518 36,000  Level Gander Center
Sun 01:53:00 PM 62.0023 -42.5546 255° West  Level Estimated
Sun 01:53:59 PM 62.6500 -44.5667 256° West 450 518 36,000  Level Gander Center
Sun 01:54:59 PM 62.6333 -44.8000 261° West 440 506 36,000  Level Gander Center
Sun 01:55:59 PM 62.6167 -45.0667 262° West 440 506 36,000  Level Gander Center
Sun 01:56:59 PM 62.5833 -45.3333 255° West 440 506 36,000  Level Gander Center
Sun 01:57:59 PM 62.5667 -45.5667 261° West 440 506 36,000  Level Gander Center
Sun 01:58:59 PM 62.5333 -45.8333 255° West 440 506 36,000  Level Gander Center
Sun 01:59:59 PM 62.5000 -46.0667 253° West 440 506 36,000  Level Gander Center
Sun 02:00:59 PM 62.4833 -46.3500 263° West 440 506 36,000  Level Gander Center
Sun 02:01:59 PM 62.4500 -46.6167 255° West 440 506 36,000  Level Gander Center
Sun 02:02:59 PM 62.4167 -46.8500 253° West 440 506 36,000  Level Gander Center
Sun 02:03:59 PM 62.3833 -47.1167 255° West 440 506 36,000  Level Gander Center
Sun 02:04:59 PM 62.3667 -47.3833 262° West 440 506 36,000  Level Gander Center
Sun 02:05:59 PM 62.3333 -47.6167 253° West 440 506 36,000  Level Gander Center
Sun 02:06:59 PM 62.3000 -47.8833 255° West 440 506 36,000  Level Gander Center
Sun 02:07:59 PM 62.2667 -48.1167 253° West 440 506 36,000  Level Gander Center
Sun 02:08:59 PM 62.2333 -48.3833 255° West 440 506 36,000  Level Gander Center
Sun 02:09:59 PM 62.2000 -48.6000 252° West 440 506 36,000  Level Gander Center
Sun 02:10:59 PM 62.1833 -48.8667 262° West 440 506 36,000  Level Gander Center
Sun 02:11:59 PM 62.1333 -49.1333 248° West 440 506 36,000  Level Gander Center
Sun 02:12:59 PM 62.1000 -49.3667 253° West 440 506 36,000  Level Gander Center
Sun 02:13:59 PM 62.0667 -49.6333 255° West 440 506 36,000  Level Gander Center
Sun 02:14:59 PM 62.0500 -49.8500 261° West 440 506 36,000  Level Gander Center
Sun 02:15:59 PM 62.0000 -50.0833 246° West 440 506 36,000  Level Gander Center
Sun 02:16:59 PM 61.9333 -50.3167 239° Southwest 440 506 36,000  Level Gander Center
Sun 02:17:59 PM 61.8833 -50.5500 246° West 440 506 36,000  Level Gander Center
Sun 02:18:59 PM 61.8333 -50.7833 246° West 440 506 36,000  Level Gander Center
Sun 02:19:59 PM 61.7667 -51.0167 239° Southwest 440 506 36,000  Level Gander Center
Sun 02:20:59 PM 61.7167 -51.2500 246° West 440 506 36,000  Level Gander Center
Sun 02:21:59 PM 61.6667 -51.4667 244° Southwest 440 506 36,000  Level Gander Center
Sun 02:22:59 PM 61.5833 -51.6667 229° Southwest 440 506 36,000  Level Gander Center
Sun 02:23:59 PM 61.5333 -51.9000 246° West 440 506 36,000  Level Gander Center
Sun 02:24:59 PM 61.4833 -52.1167 244° Southwest 440 506 36,000  Level Gander Center
Sun 02:25:59 PM 61.4167 -52.3500 239° Southwest 430 495 36,000  Level Gander Center
Sun 02:26:59 PM 61.3667 -52.5667 244° Southwest 440 506 36,000  Level Gander Center
Sun 02:27:59 PM 61.3167 -52.8000 246° West 440 506 36,000  Level Gander Center
Sun 02:28:59 PM 61.2333 -52.9833 227° Southwest 440 506 36,000  Level Gander Center
Sun 02:29:59 PM 61.1833 -53.2000 244° Southwest 430 495 36,000  Level Gander Center
Sun 02:30:59 PM 61.1333 -53.4333 246° West 430 495 36,000  Level Gander Center
Sun 02:31:59 PM 61.0667 -53.6500 238° Southwest 430 495 36,000  Level Gander Center
Sun 02:32:59 PM 61.0000 -53.8667 238° Southwest 430 495 36,000  Level Gander Center
Sun 02:33:59 PM 60.9500 -54.0833 245° Southwest 430 495 36,000  Level Gander Center
Sun 02:34:59 PM 60.8833 -54.2667 233° Southwest 430 495 36,000  Level Gander Center
Sun 02:35:59 PM 60.8167 -54.5000 240° Southwest 430 495 36,000  Level Gander Center
Sun 02:36:59 PM 60.7667 -54.7167 245° Southwest 430 495 36,000  Level Gander Center
Sun 02:37:59 PM 60.7000 -54.9333 238° Southwest 430 495 36,000  Level Gander Center
Sun 02:38:59 PM 60.6500 -55.1333 243° Southwest 430 495 36,000  Level Gander Center
Sun 02:39:59 PM 60.5667 -55.3167 227° Southwest 430 495 36,000  Level Gander Center
Sun 02:40:59 PM 60.5167 -55.5333 245° Southwest 430 495 36,000  Level Gander Center
Sun 02:41:59 PM 60.4500 -55.7500 238° Southwest 440 506 36,000  Level Gander Center
Sun 02:42:59 PM 60.3833 -55.9667 238° Southwest 440 506 36,000  Level Gander Center
Sun 02:43:59 PM 60.3167 -56.1833 238° Southwest 430 495 36,000  Level Gander Center
Sun 02:44:59 PM 60.2667 -56.3500 239° Southwest 430 495 36,000  Level Gander Center
Sun 02:45:59 PM 60.1833 -56.6000 236° Southwest 440 506 36,000  Level Gander Center
Sun 02:46:59 PM 60.1333 -56.7667 239° Southwest 430 495 36,000  Level Gander Center
Sun 02:47:59 PM 60.0667 -56.9833 238° Southwest 430 495 36,000  Level Gander Center
Sun 02:48:59 PM 59.9833 -57.1833 230° Southwest 430 495 36,000  Level Gander Center
Sun 02:49:59 PM 59.9333 -57.4000 245° Southwest 430 495 36,000  Level Gander Center
Sun 02:50:59 PM 59.8667 -57.6000 236° Southwest 430 495 36,000  Level Gander Center
Sun 02:51:59 PM 59.7833 -57.7833 228° Southwest 430 495 36,000  Level Gander Center
Sun 02:52:59 PM 59.7333 -57.9833 244° Southwest 430 495 36,000  Level Gander Center
Sun 02:53:48 PM 59.6667 -58.0833 217° Southwest 430 495 36,000  Level Montreal Center
Sun 02:54:18 PM 59.6500 -58.2167 256° West 430 495 36,000  Level Gander Center
Sun 02:55:18 PM 59.5667 -58.4167 231° Southwest 430 495 36,000  Level Gander Center
Sun 02:56:18 PM 59.5167 -58.6333 246° West 430 495 36,000  Level Gander Center
Sun 02:57:18 PM 59.4500 -58.8333 237° Southwest 440 506 36,000  Level Gander Center
Sun 02:58:18 PM 59.3667 -59.0333 231° Southwest 440 506 36,000  Level Gander Center
Sun 02:59:18 PM 59.3000 -59.2000 232° Southwest 440 506 36,000  Level Gander Center
Sun 03:00:18 PM 59.2333 -59.4000 237° Southwest 440 506 36,000  Level Gander Center
Sun 03:01:18 PM 59.1667 -59.6000 237° Southwest 440 506 36,000  Level Gander Center
Sun 03:01:48 PM 59.1167 -59.6333 199° South 440 506 36,000  Level Montreal Center
Sun 03:02:48 PM 59.0667 -59.8333 244° Southwest 440 506 36,000  Level Montreal Center
Sun 03:03:18 PM 59.0333 -59.9833 247° West 440 506 36,000  Level Gander Center
Sun 03:04:18 PM 58.9667 -60.1833 237° Southwest 440 506 36,000  Level Gander Center
Sun 03:04:48 PM 58.9333 -60.2333 218° Southwest 440 506 36,000  Level Montreal Center
Sun 03:05:18 PM 58.9000 -60.4167 251° West 440 506 36,000  Level Gander Center
Sun 03:06:18 PM 58.8333 -60.6000 235° Southwest 450 518 36,000  Level Gander Center
Sun 03:06:48 PM 58.8000 -60.6500 218° Southwest 450 518 36,000  Level Montreal Center
Sun 03:07:48 PM 58.7333 -60.8833 241° Southwest 450 518 36,000  Level Montreal Center
Sun 03:08:48 PM 58.6667 -61.0667 235° Southwest 450 518 36,000  Level Montreal Center
Sun 03:09:18 PM 58.6500 -61.2500 260° West 450 518 36,000  Level Gander Center
Sun 03:09:48 PM 58.6167 -61.2833 208° Southwest 450 518 36,000  Level Montreal Center
Sun 03:10:48 PM 58.5500 -61.5167 241° Southwest 450 518 36,000  Level Montreal Center
Sun 03:11:18 PM 58.5167 -61.6667 247° West 460 529 36,000  Level Gander Center
Sun 03:12:18 PM 58.4667 -61.8500 243° Southwest 450 518 36,000  Level Gander Center
Sun 03:13:18 PM 58.4000 -62.0833 241° Southwest 450 518 36,000  Level Gander Center
Sun 03:13:48 PM 58.3667 -62.1167 208° Southwest 450 518 36,000  Level Montreal Center
Sun 03:14:48 PM 58.3000 -62.3333 240° Southwest 450 518 36,000  Level Montreal Center
Sun 03:15:48 PM 58.2333 -62.5167 235° Southwest 450 518 36,000  Level Montreal Center
Sun 03:16:48 PM 58.1500 -62.7333 234° Southwest 460 529 36,000  Level Montreal Center
Sun 03:17:18 PM 58.1333 -62.9000 259° West 460 529 36,000  Level Gander Center
Sun 03:17:48 PM 58.1000 -62.9500 218° Southwest 450 518 36,000  Level Montreal Center
Sun 03:18:48 PM 58.0333 -63.1500 238° Southwest 450 518 36,000  Level Montreal Center
Sun 03:19:48 PM 57.9667 -63.3500 238° Southwest 450 518 36,000  Level Montreal Center
Sun 03:20:48 PM 57.9000 -63.5333 236° Southwest 450 518 36,000  Level Montreal Center
Sun 03:21:48 PM 57.8333 -63.7500 240° Southwest 460 529 36,000  Level Montreal Center
Sun 03:22:48 PM 57.7667 -63.9333 236° Southwest 450 518 36,000  Level Montreal Center
Sun 03:23:48 PM 57.7000 -64.1500 240° Southwest 450 518 36,000  Level Montreal Center
Sun 03:24:48 PM 57.6333 -64.3333 236° Southwest 450 518 36,000  Level Montreal Center
Sun 03:25:48 PM 57.5500 -64.5500 234° Southwest 460 529 36,000  Level Montreal Center
Sun 03:26:48 PM 57.4833 -64.7500 238° Southwest 450 518 36,000  Level Montreal Center
Sun 03:27:18 PM 57.4500 -64.8833 245° Southwest 450 518 36,000  Level Gander Center
Sun 03:28:18 PM 57.3833 -65.0833 238° Southwest 450 518 36,000  Level Gander Center
Sun 03:28:48 PM 57.3500 -65.1500 227° Southwest 450 518 36,000  Level Montreal Center
Sun 03:29:48 PM 57.2833 -65.3500 238° Southwest 450 518 36,000  Level Montreal Center
Sun 03:30:48 PM 57.2000 -65.5333 230° Southwest 450 518 36,000  Level Montreal Center
Sun 03:31:48 PM 57.1333 -65.7333 239° Southwest 450 518 36,000  Level Montreal Center
Sun 03:32:48 PM 57.0667 -65.9167 236° Southwest 450 518 36,000  Level Montreal Center
Sun 03:33:48 PM 57.0000 -66.1167 239° Southwest 450 518 36,000  Level Montreal Center
Sun 03:34:48 PM 56.9333 -66.2833 234° Southwest 450 518 36,000  Level Montreal Center
Sun 03:35:48 PM 56.8500 -66.5000 235° Southwest 460 529 36,000  Level Montreal Center
Sun 03:36:48 PM 56.7833 -66.6667 234° Southwest 460 529 36,000  Level Montreal Center
Sun 03:37:48 PM 56.7000 -66.8667 233° Southwest 460 529 36,000  Level Montreal Center
Sun 03:38:48 PM 56.6500 -67.0667 246° West 450 518 36,000  Level Montreal Center
Sun 03:39:48 PM 56.5667 -67.2667 233° Southwest 460 529 36,000  Level Montreal Center
Sun 03:40:48 PM 56.5167 -67.4667 246° West 450 518 36,000  Level Montreal Center
Sun 03:41:48 PM 56.4500 -67.6667 239° Southwest 460 529 36,000  Level Montreal Center
Sun 03:42:48 PM 56.4000 -67.8667 246° West 450 518 36,000  Level Montreal Center
Sun 03:43:48 PM 56.3167 -68.0667 233° Southwest 450 518 36,000  Level Montreal Center
Sun 03:44:48 PM 56.2667 -68.2833 248° West 450 518 36,000  Level Montreal Center
Sun 03:45:48 PM 56.2000 -68.4833 239° Southwest 450 518 36,000  Level Montreal Center
Sun 03:46:18 PM 56.1500 -68.6333 239° Southwest 450 518 36,000  Level Gander Center
Sun 03:47:18 PM 56.1000 -68.8000 242° Southwest 450 518 36,000  Level Gander Center
Sun 03:47:48 PM 56.0667 -68.8667 228° Southwest 450 518 36,000  Level Montreal Center
Sun 03:48:48 PM 56.0167 -69.0667 246° West 450 518 36,000  Level Montreal Center
Sun 03:49:48 PM 55.9500 -69.2500 237° Southwest 450 518 36,000  Level Montreal Center
Sun 03:50:48 PM 55.8833 -69.4500 239° Southwest 450 518 36,000  Level Montreal Center
Sun 03:51:18 PM 55.8500 -69.6000 248° West 460 529 36,000  Level Gander Center
Sun 03:51:48 PM 55.8167 -69.6333 209° Southwest 450 518 36,000  Level Montreal Center
Sun 03:52:48 PM 55.7500 -69.8333 239° Southwest 450 518 36,000  Level Montreal Center
Sun 03:53:48 PM 55.6833 -70.0167 237° Southwest 460 529 36,000  Level Montreal Center
Sun 03:54:48 PM 55.6167 -70.2333 241° Southwest 460 529 36,000  Level Montreal Center
Sun 03:55:48 PM 55.5500 -70.4167 237° Southwest 460 529 36,000  Level Montreal Center
Sun 03:57:48 PM 55.4167 -70.8000 239° Southwest 460 529 36,000  Level Montreal Center
Sun 03:58:48 PM 55.3500 -70.9833 237° Southwest 440 506 36,000  Level Montreal Center
Sun 03:59:48 PM 55.2833 -71.1667 237° Southwest 450 518 36,000  Level Montreal Center
Sun 04:00:48 PM 55.2000 -71.3500 232° Southwest 460 529 36,000  Level Montreal Center
Sun 04:01:48 PM 55.1500 -71.5500 246° West 460 529 36,000  Level Montreal Center
Sun 04:02:48 PM 55.0667 -71.7333 232° Southwest 460 529 36,000  Level Montreal Center
Sun 04:03:48 PM 55.0000 -71.9167 238° Southwest 460 529 36,000  Level Montreal Center
Sun 04:04:48 PM 54.9333 -72.1000 238° Southwest 460 529 36,000  Level Montreal Center
Sun 04:05:48 PM 54.8667 -72.3000 240° Southwest 460 529 36,000  Level Montreal Center
Sun 04:06:48 PM 54.7833 -72.4833 232° Southwest 460 529 36,000  Level Montreal Center
Sun 04:07:48 PM 54.7333 -72.6667 245° Southwest 460 529 36,000  Level Montreal Center
Sun 04:08:48 PM 54.6500 -72.8500 232° Southwest 450 518 36,000  Level Montreal Center
Sun 04:09:48 PM 54.5667 -73.0333 232° Southwest 450 518 36,000  Level Montreal Center
Sun 04:10:48 PM 54.5000 -73.2000 235° Southwest 450 518 36,000  Level Montreal Center
Sun 04:11:48 PM 54.4333 -73.3833 238° Southwest 450 518 36,000  Level Montreal Center
Sun 04:12:48 PM 54.3667 -73.5667 238° Southwest 450 518 36,000  Level Montreal Center
Sun 04:13:48 PM 54.3000 -73.7333 236° Southwest 450 518 36,000  Level Montreal Center
Sun 04:14:48 PM 54.2167 -73.9500 237° Southwest 450 518 36,000  Level Montreal Center
Sun 04:15:48 PM 54.1500 -74.1167 236° Southwest 450 518 36,000  Level Montreal Center
Sun 04:16:48 PM 54.0667 -74.3000 232° Southwest 450 518 36,000  Level Montreal Center
Sun 04:17:48 PM 54.0000 -74.4667 236° Southwest 460 529 36,000  Level Montreal Center
Sun 04:18:48 PM 53.9167 -74.6500 232° Southwest 450 518 36,000  Level Montreal Center
Sun 04:19:48 PM 53.8500 -74.8167 236° Southwest 460 529 36,000  Level Montreal Center
Sun 04:20:48 PM 53.7667 -75.0000 232° Southwest 450 518 36,000  Level Montreal Center
Sun 04:21:48 PM 53.6833 -75.1667 230° Southwest 450 518 36,000  Level Montreal Center
Sun 04:22:48 PM 53.6000 -75.3167 227° Southwest 450 518 36,000  Level Montreal Center
Sun 04:23:48 PM 53.5167 -75.4833 230° Southwest 450 518 36,000  Level Montreal Center
Sun 04:24:48 PM 53.4333 -75.6167 224° Southwest 450 518 36,000  Level Montreal Center
Sun 04:25:48 PM 53.3500 -75.8000 233° Southwest 450 518 36,000  Level Montreal Center
Sun 04:26:48 PM 53.2500 -75.9333 219° Southwest 460 529 36,000  Level Montreal Center
Sun 04:27:48 PM 53.1667 -76.1000 230° Southwest 460 529 36,000  Level Montreal Center
Sun 04:28:48 PM 53.0833 -76.2500 227° Southwest 460 529 36,000  Level Montreal Center
Sun 04:29:48 PM 53.0000 -76.4167 230° Southwest 460 529 36,000  Level Montreal Center
Sun 04:30:48 PM 52.9000 -76.5500 219° Southwest 460 529 36,000  Level Montreal Center
Sun 04:31:48 PM 52.8167 -76.7167 230° Southwest 460 529 36,000  Level Montreal Center
Sun 04:32:48 PM 52.7333 -76.8833 230° Southwest 460 529 36,000  Level Montreal Center
Sun 04:33:48 PM 52.6333 -77.0500 225° Southwest 460 529 36,000  Level Montreal Center
Sun 04:34:48 PM 52.5500 -77.1833 224° Southwest 450 518 36,000  Level Montreal Center
Sun 04:35:48 PM 52.4500 -77.3167 219° Southwest 460 529 36,000  Level Montreal Center
Sun 04:36:48 PM 52.3667 -77.4833 231° Southwest 460 529 36,000  Level Montreal Center
Sun 04:37:48 PM 52.2833 -77.6500 231° Southwest 460 529 36,000  Level Montreal Center
Sun 04:38:48 PM 52.1833 -77.7833 219° Southwest 460 529 36,000  Level Montreal Center
Sun 04:39:48 PM 52.1000 -77.9333 228° Southwest 460 529 36,000  Level Montreal Center
Sun 04:40:48 PM 52.0167 -78.0667 225° Southwest 460 529 36,000  Level Montreal Center
Sun 04:41:48 PM 51.9167 -78.2333 226° Southwest 460 529 36,000  Level Montreal Center
Sun 04:42:48 PM 51.8333 -78.3667 225° Southwest 450 518 36,000  Level Montreal Center
Sun 04:43:48 PM 51.7500 -78.5167 228° Southwest 450 518 36,000  Level Montreal Center
Sun 04:44:48 PM 51.6500 -78.6500 220° Southwest 460 529 36,000  Level Montreal Center
Sun 04:45:48 PM 51.5500 -78.8000 223° Southwest 460 529 36,000  Level Montreal Center
Sun 04:46:48 PM 51.4667 -78.9333 225° Southwest 460 529 36,000  Level Montreal Center
Sun 04:47:48 PM 51.3667 -79.1000 226° Southwest 460 529 36,000  Level Montreal Center
Sun 04:48:48 PM 51.2667 -79.2500 223° Southwest 460 529 36,000  Level Montreal Center
Sun 04:49:48 PM 51.1833 -79.3833 225° Southwest 460 529 36,000  Level Montreal Center
Sun 04:50:48 PM 51.1000 -79.5333 229° Southwest 460 529 36,000  Level Montreal Center
Sun 04:54:48 PM 50.7333 -80.0667 223° Southwest 460 529 36,000  Level Montreal Center
Sun 04:55:48 PM 50.6167 -80.1833 212° Southwest 460 529 36,000  Level Montreal Center
Sun 04:56:48 PM 50.5167 -80.3000 217° Southwest 460 529 36,000  Level Montreal Center
Sun 04:57:48 PM 50.4167 -80.4000 213° Southwest 450 518 36,000  Level Montreal Center
Sun 04:58:48 PM 50.3000 -80.5167 213° Southwest 450 518 36,000  Level Montreal Center
Sun 04:59:48 PM 50.2000 -80.6500 221° Southwest 460 529 36,000  Level Montreal Center
Sun 05:00:48 PM 50.1000 -80.7667 217° Southwest 460 529 36,000  Level Montreal Center
Sun 05:01:48 PM 49.9833 -80.8667 209° Southwest 450 518 36,000  Level Montreal Center
Sun 05:02:48 PM 49.8833 -80.9833 217° Southwest 450 518 36,000  Level Montreal Center
Sun 05:03:48 PM 49.7833 -81.0667 208° Southwest 450 518 36,000  Level Montreal Center
Sun 05:04:48 PM 49.6833 -81.2000 221° Southwest 450 518 36,000  Level Montreal Center
Sun 05:05:48 PM 49.5667 -81.3167 213° Southwest 450 518 36,000  Level Montreal Center
Sun 05:06:48 PM 49.4667 -81.4000 208° Southwest 450 518 36,000  Level Montreal Center
Sun 05:07:48 PM 49.3667 -81.5167 217° Southwest 440 506 36,000  Level Montreal Center
Sun 05:08:48 PM 49.2667 -81.6167 213° Southwest 440 506 36,000  Level Montreal Center
Sun 05:09:48 PM 49.1500 -81.7333 213° Southwest 450 518 36,000  Level Montreal Center
Sun 05:10:48 PM 49.0500 -81.8167 209° Southwest 440 506 36,000  Level Montreal Center
Sun 05:11:48 PM 48.9667 -81.9333 223° Southwest 440 506 36,000  Level Montreal Center
Sun 05:12:48 PM 48.8333 -82.0500 210° Southwest 450 518 36,000  Level Montreal Center
Sun 05:13:48 PM 48.7500 -82.1333 213° Southwest 440 506 36,000  Level Montreal Center
Sun 05:14:48 PM 48.6333 -82.2500 213° Southwest 450 518 36,000  Level Montreal Center
Sun 05:15:48 PM 48.5333 -82.3333 209° Southwest 440 506 36,000  Level Montreal Center
Sun 05:16:48 PM 48.4333 -82.4500 218° Southwest 440 506 36,000  Level Montreal Center
Sun 05:18:06 PM 48.3000 -82.5667 210° Southwest 450 518 36,000  Level Toronto Center
Sun 05:19:06 PM 48.2000 -82.6500 209° Southwest 450 518 36,000  Level Toronto Center
Sun 05:20:06 PM 48.0833 -82.7500 210° Southwest 450 518 36,000  Level Toronto Center
Sun 05:21:06 PM 47.9667 -82.8667 214° Southwest 450 518 36,000  Level Toronto Center
Sun 05:22:06 PM 47.8667 -82.9667 214° Southwest 450 518 36,000  Level Toronto Center
Sun 05:23:06 PM 47.7667 -83.0500 209° Southwest 450 518 36,000  Level Toronto Center
Sun 05:24:06 PM 47.6667 -83.1500 214° Southwest 450 518 36,000  Level Toronto Center
Sun 05:25:06 PM 47.5500 -83.2667 214° Southwest 460 529 36,000  Level Toronto Center
Sun 05:26:06 PM 47.4333 -83.3500 206° Southwest 450 518 36,000  Level Toronto Center
Sun 05:27:06 PM 47.3333 -83.4667 218° Southwest 450 518 36,000  Level Toronto Center
Sun 05:28:06 PM 47.2333 -83.5667 214° Southwest 450 518 36,000  Level Toronto Center
Sun 05:29:06 PM 47.1333 -83.6500 210° Southwest 450 518 36,000  Level Toronto Center
Sun 05:30:06 PM 47.0333 -83.7333 210° Southwest 450 518 36,000  Level Toronto Center
Sun 05:31:06 PM 46.9167 -83.8500 214° Southwest 450 518 36,000  Level Toronto Center
Sun 05:32:06 PM 46.8000 -83.9500 210° Southwest 450 518 36,000  Level Toronto Center
Sun 05:33:06 PM 46.7000 -84.0333 210° Southwest 450 518 36,000  Level Toronto Center
Sun 05:34:06 PM 46.6000 -84.1500 219° Southwest 460 529 36,000  Level Toronto Center
Sun 05:35:06 PM 46.4833 -84.2333 206° Southwest 450 518 36,000  Level Toronto Center
Sun 05:36:06 PM 46.3833 -84.3167 210° Southwest 450 518 36,000  Level Toronto Center
Sun 05:37:06 PM 46.2500 -84.3667 195° South 460 529 36,000  Level Toronto Center
Sun 05:38:06 PM 46.1333 -84.4000 191° South 460 529 36,000  Level Toronto Center
Sun 05:39:06 PM 46.0000 -84.4500 195° South 460 529 36,000  Level Toronto Center
Sun 05:40:06 PM 45.8833 -84.5000 197° South 460 529 36,000  Level Toronto Center
Sun 05:41:06 PM 45.7667 -84.5333 191° South 460 529 36,000  Level Toronto Center
Sun 05:42:06 PM 45.6500 -84.5667 191° South 460 529 36,000  Level Toronto Center
Sun 05:43:06 PM 45.5167 -84.6000 190° South 460 529 36,000 -687 Level Toronto Center
Sun 05:45:27 PM 45.2464 -84.7133 196° South 454 522 33,700 -738 Descending Minneapolis Center
Sun 05:48:31 PM 44.8936 -84.8289 193° South 426 490 32,000 -415 Descending Minneapolis Center
Sun 05:49:33 PM 44.7778 -84.8681 193° South 426 490 32,000  Level Minneapolis Center
Sun 05:50:34 PM 44.6611 -84.9061 193° South 426 490 32,000  Level Minneapolis Center
Sun 05:51:36 PM 44.5194 -84.9506 193° South 430 495 32,000 -49 Level Minneapolis Center
Sun 05:52:37 PM 44.4036 -84.9892 193° South 430 495 31,900  Descending Minneapolis Center
Sun 05:53:39 PM 44.2858 -85.0278 193° South 431 496 32,000  Climbing Minneapolis Center
Sun 05:54:40 PM 44.1692 -85.0644 193° South 431 496 31,900  Descending Minneapolis Center
Sun 05:55:42 PM 44.0533 -85.1014 193° South 430 495 32,000 49 Climbing Minneapolis Center
Sun 05:56:43 PM 43.9433 -85.1358 193° South 428 493 32,000  Level Minneapolis Center
Sun 06:02:45 PM 43.2343 -85.3592 193° South 421 484 32,000  Level FlightAware ADS-B
Sun 06:05:52 PM 42.8984 -85.5181 199° South 381 438 32,000 -605 Level FlightAware ADS-B
Sun 06:09:22 PM 42.7236 -85.9077 239° Southwest 321 369 28,000 -1,113 Descending FlightAware ADS-B
Sun 06:09:33 PM 42.7361 -85.9380 299° West 323 372 27,900 -1,483 Descending FlightAware ADS-B
Sun 06:10:51 PM 42.8102 -86.0575 310° West 296 341 25,800 -1,593 Descending FlightAware ADS-B
Sun 06:12:30 PM 42.7713 -86.2226 252° West 277 319 23,200 -1,626 Descending FlightAware ADS-B
Sun 06:15:24 PM 42.6785 -86.4874 245° Southwest 261 300 18,400 -1,610 Descending FlightAware ADS-B
Sun 06:15:55 PM 42.6627 -86.5316 244° Southwest 256 295 17,700 -1,475 Descending FlightAware ADS-B
Sun 06:16:25 PM 42.6472 -86.5757 244° Southwest 258 297 16,900 -1,556 Descending FlightAware ADS-B
Sun 06:17:16 PM 42.6216 -86.6477 244° Southwest 261 300 15,600 -1,416 Descending FlightAware ADS-B
Sun 06:17:54 PM 42.6052 -86.6941 244° Southwest 255 293 14,800 -1,255 Descending FlightAware ADS-B
Sun 06:19:06 PM 42.5643 -86.8085 244° Southwest 251 289 13,300 -1,294 Descending FlightAware ADS-B
Sun 06:19:36 PM 42.5502 -86.8476 244° Southwest 250 288 12,600 -1,286 Descending FlightAware ADS-B
Sun 06:20:16 PM 42.5294 -86.9060 244° Southwest 249 287 11,800 -1,350 Descending FlightAware ADS-B
Sun 06:20:56 PM 42.5094 -86.9617 244° Southwest 249 287 10,800 -1,286 Descending FlightAware ADS-B
Sun 06:21:26 PM 42.4940 -87.0043 244° Southwest 247 284 10,300 -1,080 Descending FlightAware ADS-B
Sun 06:21:46 PM 42.4846 -87.0304 244° Southwest 247 284 9,900 -769 Descending FlightAware ADS-B
Sun 06:22:05 PM 42.4742 -87.0592 244° Southwest 245 282 9,800 -122 Descending FlightAware ADS-B
Sun 06:22:35 PM 42.4597 -87.0995 244° Southwest 246 283 9,800 -269 Level FlightAware ADS-B
Sun 06:23:12 PM 42.4443 -87.1523 248° West 245 282 9,500 -700 Descending FlightAware ADS-B
Sun 06:23:35 PM 42.4338 -87.1839 246° West 252 290 9,100 -1,200 Descending FlightAware ADS-B
Sun 06:23:52 PM 42.4201 -87.1983 218° Southwest 279 321 8,700 -1,176 Descending FlightAware ADS-B
Sun 06:24:26 PM 42.3719 -87.2097 190° South 282 325 8,100 -1,080 Descending FlightAware ADS-B
Sun 06:24:42 PM 42.3517 -87.2134 188° South 281 323 7,800 -960 Descending FlightAware ADS-B
Sun 06:25:16 PM 42.3089 -87.2211 188° South 278 320 7,300 -1,019 Descending FlightAware ADS-B
Sun 06:25:35 PM 42.2839 -87.2257 188° South 273 314 6,900 -1,050 Descending FlightAware ADS-B
Sun 06:25:56 PM 42.2590 -87.2306 188° South 269 310 6,600 -732 Descending FlightAware ADS-B
Sun 06:26:16 PM 42.2429 -87.2338 188° South 268 308 6,400 -450 Descending FlightAware ADS-B
Sun 06:26:36 PM 42.2312 -87.2361 188° South 270 311 6,300 -500 Descending FlightAware ADS-B
Sun 06:26:52 PM 42.1899 -87.2445 189° South 269 310 6,100 -490 Descending FlightAware ADS-B
Sun 06:27:25 PM 42.1485 -87.2530 189° South 272 313 5,900 -429 Descending FlightAware ADS-B
Sun 06:27:48 PM 42.1200 -87.2587 189° South 270 311 5,700 -353 Descending FlightAware ADS-B
Sun 06:28:16 PM 42.0859 -87.2657 189° South 270 311 5,600 -414 Descending FlightAware ADS-B
Sun 06:28:46 PM 42.0491 -87.2733 189° South 270 311 5,300 -612 Descending FlightAware ADS-B
Sun 06:29:05 PM 42.0252 -87.2783 189° South 270 311 5,100 -462 Descending FlightAware ADS-B
Sun 06:29:25 PM 42.0009 -87.2840 190° South 266 306 5,000 -387 Descending FlightAware ADS-B
Sun 06:29:36 PM 41.9898 -87.2914 206° Southwest 253 291 4,900 -571 Descending FlightAware ADS-B
Sun 06:29:46 PM 41.9806 -87.3030 223° Southwest 239 275 4,800 -200 Descending FlightAware ADS-B
Sun 06:30:06 PM 41.9689 -87.3253 235° Southwest 209 241 4,800  Level FlightAware ADS-B
Sun 06:30:16 PM 41.9665 -87.3368 254° West 193 222 4,800  Level FlightAware ADS-B
Sun 06:30:36 PM 41.9650 -87.3591 265° West 185 213 4,800  Level FlightAware ADS-B
Sun 06:30:43 PM 41.9650 -87.3637 270° West 185 213 4,800  Level FlightAware ADS-B
Sun 06:31:06 PM 41.9652 -87.3950 270° West 186 214 4,800  Level FlightAware ADS-B
Sun 06:31:36 PM 41.9654 -87.4271 270° West 186 214 4,800 -120 Level FlightAware ADS-B
Sun 06:31:56 PM 41.9654 -87.4469 270° West 188 216 4,700 -450 Descending FlightAware ADS-B
Sun 06:32:16 PM 41.9655 -87.4760 270° West 185 213 4,500 -638 Descending FlightAware ADS-B
Sun 06:32:43 PM 41.9656 -87.5063 270° West 187 215 4,200 -480 Descending FlightAware ADS-B
Sun 06:33:06 PM 41.9656 -87.5336 270° West 185 213 4,100 -453 Descending FlightAware ADS-B
Sun 06:33:36 PM 41.9656 -87.5675 270° West 182 209 3,800 -367 Descending FlightAware ADS-B
Sun 06:33:55 PM 41.9656 -87.5881 270° West 183 211 3,800  Level FlightAware ADS-B
Sun 06:34:16 PM 41.9657 -87.6127 270° West 183 211 3,800  Level FlightAware ADS-B
Sun 06:34:31 PM 41.9657 -87.6006 90° East 184 212 3,800  Level FlightAware ADS-B
Sun 06:35:05 PM 41.9658 -87.6654 270° West 156 180 3,800 -109 Level FlightAware ADS-B
Sun 06:35:26 PM 41.9658 -87.6853 270° West 154 177 3,700 -600 Descending FlightAware ADS-B
Sun 06:35:45 PM 41.9659 -87.7019 270° West 154 177 3,400 -960 Descending FlightAware ADS-B
Sun 06:36:16 PM 41.9658 -87.7326 270° West 151 174 2,900 -941 Descending FlightAware ADS-B
Sun 06:36:36 PM 41.9658 -87.7518 270° West 154 177 2,600 -900 Descending FlightAware ADS-B
Sun 06:36:56 PM 41.9659 -87.7708 270° West 154 177 2,300 -750 Descending FlightAware ADS-B
Sun 06:37:16 PM 41.9659 -87.7886 270° West 144 166 2,100 -720 Descending FlightAware ADS-B
Sun 06:37:46 PM 41.9659 -87.8140 270° West 126 145 1,700 -840 Descending FlightAware ADS-B
Sun 06:38:06 PM 41.9659 -87.8288 270° West 124 143 1,400 -750 Descending FlightAware ADS-B
Sun 06:38:26 PM 41.9659 -87.8431 270° West 123 142 1,200 -600 Descending FlightAware ADS-B
Sun 06:38:46 PM 41.9659 -87.8601 270° West 122 140 1,000 -769 Descending FlightAware ADS-B
Sun 06:39:05 PM 41.9658 -87.8744 270° West 122 140 700 -706 Descending FlightAware ADS-B
Sun 06:39:37 PM 41.9658 -87.8985 270° West 121 139 400 -563 Descending FlightAware ADS-B
Sun 06:47:00 PM 41.9667 -87.9000 180° South  Level FlightAware Approximate

Login

Don't have an account? Register now (free) for customized features, flight alerts, and more!